sensor_id;sensor_type;location;lat;lon;timestamp;P1;durP1;ratioP1;P2;durP2;ratioP2
64598;SDS011;51008;51.504;11.548;2023-08-06T00:04:33;3.97;;;1.80;;
64598;SDS011;51008;51.504;11.548;2023-08-06T00:09:34;2.72;;;1.90;;
64598;SDS011;51008;51.504;11.548;2023-08-06T00:14:35;2.40;;;1.73;;
64598;SDS011;51008;51.504;11.548;2023-08-06T00:19:36;2.95;;;1.42;;
64598;SDS011;51008;51.504;11.548;2023-08-06T00:24:37;1.40;;;1.30;;
64598;SDS011;51008;51.504;11.548;2023-08-06T00:29:38;2.20;;;1.60;;
64598;SDS011;51008;51.504;11.548;2023-08-06T00:34:39;3.25;;;1.50;;
64598;SDS011;51008;51.504;11.548;2023-08-06T00:39:40;1.65;;;1.35;;
64598;SDS011;51008;51.504;11.548;2023-08-06T00:44:41;3.35;;;1.60;;
64598;SDS011;51008;51.504;11.548;2023-08-06T00:49:42;3.53;;;1.60;;
64598;SDS011;51008;51.504;11.548;2023-08-06T00:54:44;5.18;;;1.52;;
64598;SDS011;51008;51.504;11.548;2023-08-06T00:59:45;2.75;;;1.85;;
64598;SDS011;51008;51.504;11.548;2023-08-06T01:04:46;4.35;;;2.10;;
64598;SDS011;51008;51.504;11.548;2023-08-06T01:14:57;2.95;;;2.08;;
64598;SDS011;51008;51.504;11.548;2023-08-06T01:20:08;4.70;;;2.08;;
64598;SDS011;51008;51.504;11.548;2023-08-06T01:25:09;1.83;;;1.63;;
64598;SDS011;51008;51.504;11.548;2023-08-06T01:30:20;4.72;;;2.10;;
64598;SDS011;51008;51.504;11.548;2023-08-06T01:35:26;5.57;;;2.25;;
64598;SDS011;51008;51.504;11.548;2023-08-06T01:40:29;3.92;;;1.88;;
64598;SDS011;51008;51.504;11.548;2023-08-06T01:45:31;4.97;;;2.10;;
64598;SDS011;51008;51.504;11.548;2023-08-06T01:50:32;5.03;;;2.20;;
64598;SDS011;51008;51.504;11.548;2023-08-06T01:55:33;4.82;;;1.90;;
64598;SDS011;51008;51.504;11.548;2023-08-06T02:00:34;11.68;;;2.03;;
64598;SDS011;51008;51.504;11.548;2023-08-06T02:05:35;6.35;;;2.30;;
64598;SDS011;51008;51.504;11.548;2023-08-06T02:10:36;3.95;;;1.80;;
64598;SDS011;51008;51.504;11.548;2023-08-06T02:15:43;3.05;;;1.65;;
64598;SDS011;51008;51.504;11.548;2023-08-06T02:20:55;4.18;;;2.22;;
64598;SDS011;51008;51.504;11.548;2023-08-06T02:26:00;7.05;;;2.10;;
64598;SDS011;51008;51.504;11.548;2023-08-06T02:31:05;4.90;;;2.25;;
64598;SDS011;51008;51.504;11.548;2023-08-06T02:36:06;4.85;;;2.28;;
64598;SDS011;51008;51.504;11.548;2023-08-06T02:41:07;4.95;;;2.60;;
64598;SDS011;51008;51.504;11.548;2023-08-06T02:46:08;5.50;;;2.13;;
64598;SDS011;51008;51.504;11.548;2023-08-06T02:51:09;7.43;;;2.13;;
64598;SDS011;51008;51.504;11.548;2023-08-06T02:56:10;5.20;;;2.30;;
64598;SDS011;51008;51.504;11.548;2023-08-06T03:01:23;3.50;;;2.00;;
64598;SDS011;51008;51.504;11.548;2023-08-06T03:06:30;4.75;;;2.20;;
64598;SDS011;51008;51.504;11.548;2023-08-06T03:11:34;4.47;;;2.00;;
64598;SDS011;51008;51.504;11.548;2023-08-06T03:16:41;4.82;;;2.63;;
64598;SDS011;51008;51.504;11.548;2023-08-06T03:21:42;4.68;;;2.08;;
64598;SDS011;51008;51.504;11.548;2023-08-06T03:26:44;3.65;;;1.92;;
64598;SDS011;51008;51.504;11.548;2023-08-06T03:31:46;4.40;;;2.55;;
64598;SDS011;51008;51.504;11.548;2023-08-06T03:36:49;3.75;;;2.20;;
64598;SDS011;51008;51.504;11.548;2023-08-06T03:41:50;4.57;;;2.55;;
64598;SDS011;51008;51.504;11.548;2023-08-06T03:46:51;4.15;;;2.83;;
64598;SDS011;51008;51.504;11.548;2023-08-06T03:51:52;4.18;;;2.30;;
64598;SDS011;51008;51.504;11.548;2023-08-06T03:56:54;5.00;;;2.50;;
64598;SDS011;51008;51.504;11.548;2023-08-06T04:01:55;10.23;;;4.07;;
64598;SDS011;51008;51.504;11.548;2023-08-06T04:06:58;6.03;;;4.55;;
64598;SDS011;51008;51.504;11.548;2023-08-06T04:11:59;6.45;;;4.45;;
64598;SDS011;51008;51.504;11.548;2023-08-06T04:17:00;5.90;;;4.50;;
64598;SDS011;51008;51.504;11.548;2023-08-06T04:22:01;6.50;;;4.15;;
64598;SDS011;51008;51.504;11.548;2023-08-06T04:27:02;6.13;;;4.80;;
64598;SDS011;51008;51.504;11.548;2023-08-06T04:32:05;8.10;;;5.25;;
64598;SDS011;51008;51.504;11.548;2023-08-06T04:37:07;6.75;;;4.40;;
64598;SDS011;51008;51.504;11.548;2023-08-06T04:42:08;6.72;;;4.88;;
64598;SDS011;51008;51.504;11.548;2023-08-06T04:47:09;8.13;;;5.35;;
64598;SDS011;51008;51.504;11.548;2023-08-06T04:52:10;6.97;;;5.32;;
64598;SDS011;51008;51.504;11.548;2023-08-06T04:57:11;8.55;;;5.32;;
64598;SDS011;51008;51.504;11.548;2023-08-06T05:02:13;6.00;;;4.60;;
64598;SDS011;51008;51.504;11.548;2023-08-06T05:07:14;6.45;;;4.32;;
64598;SDS011;51008;51.504;11.548;2023-08-06T05:12:14;6.03;;;4.97;;
64598;SDS011;51008;51.504;11.548;2023-08-06T05:17:15;8.82;;;5.32;;
64598;SDS011;51008;51.504;11.548;2023-08-06T05:22:16;8.30;;;6.18;;
64598;SDS011;51008;51.504;11.548;2023-08-06T05:27:17;9.48;;;6.07;;
64598;SDS011;51008;51.504;11.548;2023-08-06T05:32:19;8.65;;;5.95;;
64598;SDS011;51008;51.504;11.548;2023-08-06T05:37:20;9.05;;;6.13;;
64598;SDS011;51008;51.504;11.548;2023-08-06T05:42:21;11.70;;;5.85;;
64598;SDS011;51008;51.504;11.548;2023-08-06T05:47:22;7.90;;;5.60;;
64598;SDS011;51008;51.504;11.548;2023-08-06T05:52:23;7.65;;;5.30;;
64598;SDS011;51008;51.504;11.548;2023-08-06T05:57:24;8.80;;;4.80;;
64598;SDS011;51008;51.504;11.548;2023-08-06T06:02:25;10.10;;;4.90;;
64598;SDS011;51008;51.504;11.548;2023-08-06T06:07:26;6.10;;;4.30;;
64598;SDS011;51008;51.504;11.548;2023-08-06T06:12:27;9.20;;;4.55;;
64598;SDS011;51008;51.504;11.548;2023-08-06T06:17:28;8.38;;;4.47;;
64598;SDS011;51008;51.504;11.548;2023-08-06T06:22:29;11.45;;;5.47;;
64598;SDS011;51008;51.504;11.548;2023-08-06T06:27:31;5.90;;;3.83;;
64598;SDS011;51008;51.504;11.548;2023-08-06T06:32:32;7.88;;;3.90;;
64598;SDS011;51008;51.504;11.548;2023-08-06T06:37:33;6.88;;;3.75;;
64598;SDS011;51008;51.504;11.548;2023-08-06T06:42:34;14.27;;;7.15;;
64598;SDS011;51008;51.504;11.548;2023-08-06T06:47:36;4.93;;;3.25;;
64598;SDS011;51008;51.504;11.548;2023-08-06T06:52:37;4.90;;;2.75;;
64598;SDS011;51008;51.504;11.548;2023-08-06T06:57:38;3.90;;;2.60;;
64598;SDS011;51008;51.504;11.548;2023-08-06T07:02:39;5.40;;;2.90;;
64598;SDS011;51008;51.504;11.548;2023-08-06T07:07:40;5.60;;;2.80;;
64598;SDS011;51008;51.504;11.548;2023-08-06T07:12:41;4.80;;;3.20;;
64598;SDS011;51008;51.504;11.548;2023-08-06T07:17:42;5.50;;;2.85;;
64598;SDS011;51008;51.504;11.548;2023-08-06T07:22:44;8.70;;;4.97;;
64598;SDS011;51008;51.504;11.548;2023-08-06T07:27:45;6.13;;;3.47;;
64598;SDS011;51008;51.504;11.548;2023-08-06T07:32:46;5.30;;;3.30;;
64598;SDS011;51008;51.504;11.548;2023-08-06T07:37:47;4.43;;;2.90;;
64598;SDS011;51008;51.504;11.548;2023-08-06T07:42:48;8.50;;;3.40;;
64598;SDS011;51008;51.504;11.548;2023-08-06T07:47:49;5.07;;;2.80;;
64598;SDS011;51008;51.504;11.548;2023-08-06T07:52:50;4.53;;;2.78;;
64598;SDS011;51008;51.504;11.548;2023-08-06T07:57:51;4.47;;;2.53;;
64598;SDS011;51008;51.504;11.548;2023-08-06T08:02:52;3.17;;;2.42;;
64598;SDS011;51008;51.504;11.548;2023-08-06T08:07:53;4.60;;;2.20;;
64598;SDS011;51008;51.504;11.548;2023-08-06T08:12:54;4.68;;;2.58;;
64598;SDS011;51008;51.504;11.548;2023-08-06T08:17:56;6.10;;;2.70;;
64598;SDS011;51008;51.504;11.548;2023-08-06T08:22:58;7.28;;;3.95;;
64598;SDS011;51008;51.504;11.548;2023-08-06T08:27:59;3.83;;;2.43;;
64598;SDS011;51008;51.504;11.548;2023-08-06T08:33:00;3.47;;;2.25;;
64598;SDS011;51008;51.504;11.548;2023-08-06T08:38:01;4.38;;;2.70;;
64598;SDS011;51008;51.504;11.548;2023-08-06T08:43:02;5.05;;;2.50;;
64598;SDS011;51008;51.504;11.548;2023-08-06T08:48:05;3.95;;;2.25;;
64598;SDS011;51008;51.504;11.548;2023-08-06T08:53:07;3.67;;;2.08;;
64598;SDS011;51008;51.504;11.548;2023-08-06T08:58:09;3.78;;;2.25;;
64598;SDS011;51008;51.504;11.548;2023-08-06T09:03:10;4.50;;;2.20;;
64598;SDS011;51008;51.504;11.548;2023-08-06T09:08:12;5.47;;;2.30;;
64598;SDS011;51008;51.504;11.548;2023-08-06T09:13:18;4.28;;;2.10;;
64598;SDS011;51008;51.504;11.548;2023-08-06T09:18:31;3.67;;;2.13;;
64598;SDS011;51008;51.504;11.548;2023-08-06T09:23:32;4.00;;;2.17;;
64598;SDS011;51008;51.504;11.548;2023-08-06T09:28:37;3.00;;;2.00;;
64598;SDS011;51008;51.504;11.548;2023-08-06T09:33:38;2.63;;;2.10;;
64598;SDS011;51008;51.504;11.548;2023-08-06T09:38:40;2.83;;;2.10;;
64598;SDS011;51008;51.504;11.548;2023-08-06T09:43:42;3.88;;;2.00;;
64598;SDS011;51008;51.504;11.548;2023-08-06T09:48:48;3.13;;;2.20;;
64598;SDS011;51008;51.504;11.548;2023-08-06T09:53:50;4.05;;;2.20;;
64598;SDS011;51008;51.504;11.548;2023-08-06T09:58:52;4.88;;;1.90;;
64598;SDS011;51008;51.504;11.548;2023-08-06T10:03:54;3.00;;;1.93;;
64598;SDS011;51008;51.504;11.548;2023-08-06T10:08:58;32.72;;;14.10;;
64598;SDS011;51008;51.504;11.548;2023-08-06T10:19:20;6.55;;;2.30;;
64598;SDS011;51008;51.504;11.548;2023-08-06T10:24:22;3.72;;;2.25;;
64598;SDS011;51008;51.504;11.548;2023-08-06T10:29:35;5.32;;;2.25;;
64598;SDS011;51008;51.504;11.548;2023-08-06T10:40:07;2.30;;;1.70;;
64598;SDS011;51008;51.504;11.548;2023-08-06T10:45:15;3.10;;;1.90;;
64598;SDS011;51008;51.504;11.548;2023-08-06T10:50:18;3.28;;;1.50;;
64598;SDS011;51008;51.504;11.548;2023-08-06T10:55:26;3.42;;;1.98;;
64598;SDS011;51008;51.504;11.548;2023-08-06T11:00:28;5.38;;;1.95;;
64598;SDS011;51008;51.504;11.548;2023-08-06T11:05:32;2.03;;;1.63;;
64598;SDS011;51008;51.504;11.548;2023-08-06T11:10:33;2.60;;;1.92;;
64598;SDS011;51008;51.504;11.548;2023-08-06T11:15:34;3.55;;;1.67;;
64598;SDS011;51008;51.504;11.548;2023-08-06T11:20:36;2.58;;;1.70;;
64598;SDS011;51008;51.504;11.548;2023-08-06T11:25:43;2.25;;;1.88;;
64598;SDS011;51008;51.504;11.548;2023-08-06T11:30:45;2.50;;;1.70;;
64598;SDS011;51008;51.504;11.548;2023-08-06T11:35:48;3.67;;;1.75;;
64598;SDS011;51008;51.504;11.548;2023-08-06T11:40:52;3.13;;;1.98;;
64598;SDS011;51008;51.504;11.548;2023-08-06T11:45:55;2.88;;;1.70;;
64598;SDS011;51008;51.504;11.548;2023-08-06T11:50:57;3.42;;;1.80;;
64598;SDS011;51008;51.504;11.548;2023-08-06T11:55:58;2.25;;;1.67;;
64598;SDS011;51008;51.504;11.548;2023-08-06T12:00:59;3.45;;;1.85;;
64598;SDS011;51008;51.504;11.548;2023-08-06T12:06:00;2.03;;;1.60;;
64598;SDS011;51008;51.504;11.548;2023-08-06T12:11:01;2.80;;;1.80;;
64598;SDS011;51008;51.504;11.548;2023-08-06T12:16:02;3.75;;;1.63;;
64598;SDS011;51008;51.504;11.548;2023-08-06T12:21:03;3.90;;;2.00;;
64598;SDS011;51008;51.504;11.548;2023-08-06T12:26:04;6.32;;;2.10;;
64598;SDS011;51008;51.504;11.548;2023-08-06T12:31:05;2.70;;;2.00;;
64598;SDS011;51008;51.504;11.548;2023-08-06T12:36:06;2.90;;;1.70;;
64598;SDS011;51008;51.504;11.548;2023-08-06T12:41:07;4.15;;;1.70;;
64598;SDS011;51008;51.504;11.548;2023-08-06T12:46:08;3.17;;;1.77;;
64598;SDS011;51008;51.504;11.548;2023-08-06T12:51:09;3.88;;;1.80;;
64598;SDS011;51008;51.504;11.548;2023-08-06T12:56:10;2.63;;;1.80;;
64598;SDS011;51008;51.504;11.548;2023-08-06T13:01:12;2.53;;;1.65;;
64598;SDS011;51008;51.504;11.548;2023-08-06T13:06:13;2.28;;;1.70;;
64598;SDS011;51008;51.504;11.548;2023-08-06T13:11:14;3.35;;;2.00;;
64598;SDS011;51008;51.504;11.548;2023-08-06T13:16:15;2.55;;;1.60;;
64598;SDS011;51008;51.504;11.548;2023-08-06T13:21:16;2.38;;;1.60;;
64598;SDS011;51008;51.504;11.548;2023-08-06T13:26:17;2.55;;;1.60;;
64598;SDS011;51008;51.504;11.548;2023-08-06T13:31:18;1.98;;;1.60;;
64598;SDS011;51008;51.504;11.548;2023-08-06T13:36:19;2.05;;;1.55;;
64598;SDS011;51008;51.504;11.548;2023-08-06T13:41:20;2.15;;;1.50;;
64598;SDS011;51008;51.504;11.548;2023-08-06T13:46:22;3.35;;;1.77;;
64598;SDS011;51008;51.504;11.548;2023-08-06T13:51:23;2.42;;;1.50;;
64598;SDS011;51008;51.504;11.548;2023-08-06T13:56:24;3.83;;;1.60;;
64598;SDS011;51008;51.504;11.548;2023-08-06T14:01:25;2.50;;;1.60;;
64598;SDS011;51008;51.504;11.548;2023-08-06T14:06:26;2.85;;;1.55;;
64598;SDS011;51008;51.504;11.548;2023-08-06T14:11:27;3.47;;;1.65;;
64598;SDS011;51008;51.504;11.548;2023-08-06T14:16:28;2.10;;;1.58;;
64598;SDS011;51008;51.504;11.548;2023-08-06T14:21:29;3.22;;;1.73;;
64598;SDS011;51008;51.504;11.548;2023-08-06T14:26:30;2.40;;;1.58;;
64598;SDS011;51008;51.504;11.548;2023-08-06T14:31:32;2.03;;;1.50;;
64598;SDS011;51008;51.504;11.548;2023-08-06T14:36:33;2.30;;;1.40;;
64598;SDS011;51008;51.504;11.548;2023-08-06T14:41:34;2.22;;;1.50;;
64598;SDS011;51008;51.504;11.548;2023-08-06T14:46:35;4.82;;;1.50;;
64598;SDS011;51008;51.504;11.548;2023-08-06T14:51:36;4.82;;;1.55;;
64598;SDS011;51008;51.504;11.548;2023-08-06T14:56:37;4.22;;;1.65;;
64598;SDS011;51008;51.504;11.548;2023-08-06T15:01:38;3.33;;;1.38;;
64598;SDS011;51008;51.504;11.548;2023-08-06T15:06:39;2.50;;;1.58;;
64598;SDS011;51008;51.504;11.548;2023-08-06T15:11:40;2.55;;;1.50;;
64598;SDS011;51008;51.504;11.548;2023-08-06T15:16:41;1.83;;;1.40;;
64598;SDS011;51008;51.504;11.548;2023-08-06T15:21:42;4.72;;;1.80;;
64598;SDS011;51008;51.504;11.548;2023-08-06T15:26:43;3.67;;;2.15;;
64598;SDS011;51008;51.504;11.548;2023-08-06T15:31:45;2.58;;;1.83;;
64598;SDS011;51008;51.504;11.548;2023-08-06T15:36:46;2.95;;;2.03;;
64598;SDS011;51008;51.504;11.548;2023-08-06T15:41:47;6.28;;;2.88;;
64598;SDS011;51008;51.504;11.548;2023-08-06T15:46:48;3.60;;;2.13;;
64598;SDS011;51008;51.504;11.548;2023-08-06T15:51:49;3.15;;;1.80;;
64598;SDS011;51008;51.504;11.548;2023-08-06T15:56:50;3.38;;;1.85;;
64598;SDS011;51008;51.504;11.548;2023-08-06T16:01:51;5.47;;;1.90;;
64598;SDS011;51008;51.504;11.548;2023-08-06T16:06:53;5.50;;;1.83;;
64598;SDS011;51008;51.504;11.548;2023-08-06T16:11:55;3.90;;;2.20;;
64598;SDS011;51008;51.504;11.548;2023-08-06T16:16:56;13.20;;;2.80;;
64598;SDS011;51008;51.504;11.548;2023-08-06T16:21:57;8.00;;;2.30;;
64598;SDS011;51008;51.504;11.548;2023-08-06T16:26:58;18.77;;;3.50;;
64598;SDS011;51008;51.504;11.548;2023-08-06T16:31:59;12.93;;;2.95;;
64598;SDS011;51008;51.504;11.548;2023-08-06T16:37:00;7.85;;;3.42;;
64598;SDS011;51008;51.504;11.548;2023-08-06T16:42:01;3.45;;;2.40;;
64598;SDS011;51008;51.504;11.548;2023-08-06T16:47:02;4.57;;;2.53;;
64598;SDS011;51008;51.504;11.548;2023-08-06T16:52:03;6.70;;;2.25;;
64598;SDS011;51008;51.504;11.548;2023-08-06T16:57:05;7.00;;;2.35;;
64598;SDS011;51008;51.504;11.548;2023-08-06T17:02:06;4.38;;;2.08;;
64598;SDS011;51008;51.504;11.548;2023-08-06T17:07:07;5.45;;;2.10;;
64598;SDS011;51008;51.504;11.548;2023-08-06T17:12:08;3.20;;;1.70;;
64598;SDS011;51008;51.504;11.548;2023-08-06T17:17:09;3.20;;;1.75;;
64598;SDS011;51008;51.504;11.548;2023-08-06T17:22:11;8.98;;;2.55;;
64598;SDS011;51008;51.504;11.548;2023-08-06T17:27:12;7.82;;;1.75;;
64598;SDS011;51008;51.504;11.548;2023-08-06T17:32:13;6.57;;;1.58;;
64598;SDS011;51008;51.504;11.548;2023-08-06T17:37:14;4.30;;;1.98;;
64598;SDS011;51008;51.504;11.548;2023-08-06T17:42:16;7.70;;;2.00;;
64598;SDS011;51008;51.504;11.548;2023-08-06T17:47:17;6.53;;;2.10;;
64598;SDS011;51008;51.504;11.548;2023-08-06T17:52:18;5.43;;;1.95;;
64598;SDS011;51008;51.504;11.548;2023-08-06T17:57:19;8.57;;;3.03;;
64598;SDS011;51008;51.504;11.548;2023-08-06T18:02:20;9.05;;;2.78;;
64598;SDS011;51008;51.504;11.548;2023-08-06T18:07:21;11.25;;;3.33;;
64598;SDS011;51008;51.504;11.548;2023-08-06T18:12:22;5.53;;;2.25;;
64598;SDS011;51008;51.504;11.548;2023-08-06T18:17:23;7.30;;;2.67;;
64598;SDS011;51008;51.504;11.548;2023-08-06T18:22:24;8.60;;;3.30;;
64598;SDS011;51008;51.504;11.548;2023-08-06T18:27:25;8.95;;;3.97;;
64598;SDS011;51008;51.504;11.548;2023-08-06T18:32:26;5.45;;;3.30;;
64598;SDS011;51008;51.504;11.548;2023-08-06T18:37:27;5.53;;;3.40;;
64598;SDS011;51008;51.504;11.548;2023-08-06T18:42:28;6.85;;;3.13;;
64598;SDS011;51008;51.504;11.548;2023-08-06T18:47:30;6.55;;;2.85;;
64598;SDS011;51008;51.504;11.548;2023-08-06T18:52:31;7.78;;;2.90;;
64598;SDS011;51008;51.504;11.548;2023-08-06T18:57:32;6.10;;;3.00;;
64598;SDS011;51008;51.504;11.548;2023-08-06T19:02:33;5.63;;;2.83;;
64598;SDS011;51008;51.504;11.548;2023-08-06T19:07:34;7.20;;;3.30;;
64598;SDS011;51008;51.504;11.548;2023-08-06T19:12:35;4.35;;;3.03;;
64598;SDS011;51008;51.504;11.548;2023-08-06T19:17:36;7.88;;;2.97;;
64598;SDS011;51008;51.504;11.548;2023-08-06T19:22:37;5.95;;;2.97;;
64598;SDS011;51008;51.504;11.548;2023-08-06T19:27:38;6.38;;;2.97;;
64598;SDS011;51008;51.504;11.548;2023-08-06T19:32:39;5.22;;;3.20;;
64598;SDS011;51008;51.504;11.548;2023-08-06T19:37:40;6.40;;;3.15;;
64598;SDS011;51008;51.504;11.548;2023-08-06T19:42:41;6.63;;;3.03;;
64598;SDS011;51008;51.504;11.548;2023-08-06T19:47:42;6.88;;;3.00;;
64598;SDS011;51008;51.504;11.548;2023-08-06T19:52:43;5.80;;;2.92;;
64598;SDS011;51008;51.504;11.548;2023-08-06T19:57:45;4.78;;;2.83;;
64598;SDS011;51008;51.504;11.548;2023-08-06T20:02:46;4.53;;;3.00;;
64598;SDS011;51008;51.504;11.548;2023-08-06T20:07:47;4.00;;;2.72;;
64598;SDS011;51008;51.504;11.548;2023-08-06T20:12:48;3.90;;;2.60;;
64598;SDS011;51008;51.504;11.548;2023-08-06T20:17:49;4.13;;;2.70;;
64598;SDS011;51008;51.504;11.548;2023-08-06T20:22:50;4.50;;;2.60;;
64598;SDS011;51008;51.504;11.548;2023-08-06T20:27:51;3.83;;;2.42;;
64598;SDS011;51008;51.504;11.548;2023-08-06T20:32:52;5.43;;;2.83;;
64598;SDS011;51008;51.504;11.548;2023-08-06T20:37:53;4.80;;;2.97;;
64598;SDS011;51008;51.504;11.548;2023-08-06T20:42:54;4.90;;;2.75;;
64598;SDS011;51008;51.504;11.548;2023-08-06T20:47:55;3.78;;;2.60;;
64598;SDS011;51008;51.504;11.548;2023-08-06T20:52:56;9.50;;;2.80;;
64598;SDS011;51008;51.504;11.548;2023-08-06T20:57:57;4.97;;;2.53;;
64598;SDS011;51008;51.504;11.548;2023-08-06T21:02:58;5.00;;;2.60;;
64598;SDS011;51008;51.504;11.548;2023-08-06T21:07:59;4.05;;;2.85;;
64598;SDS011;51008;51.504;11.548;2023-08-06T21:13:00;4.72;;;2.78;;
64598;SDS011;51008;51.504;11.548;2023-08-06T21:18:02;6.72;;;2.83;;
64598;SDS011;51008;51.504;11.548;2023-08-06T21:23:03;11.60;;;3.08;;
64598;SDS011;51008;51.504;11.548;2023-08-06T21:28:04;8.90;;;2.88;;
64598;SDS011;51008;51.504;11.548;2023-08-06T21:33:05;4.75;;;2.75;;
64598;SDS011;51008;51.504;11.548;2023-08-06T21:38:06;7.57;;;2.80;;
64598;SDS011;51008;51.504;11.548;2023-08-06T21:43:07;4.25;;;2.42;;
64598;SDS011;51008;51.504;11.548;2023-08-06T21:48:08;4.43;;;2.40;;
64598;SDS011;51008;51.504;11.548;2023-08-06T21:53:09;5.38;;;2.50;;
64598;SDS011;51008;51.504;11.548;2023-08-06T21:58:10;6.03;;;2.40;;
64598;SDS011;51008;51.504;11.548;2023-08-06T22:03:11;3.83;;;2.38;;
64598;SDS011;51008;51.504;11.548;2023-08-06T22:08:12;4.25;;;2.50;;
64598;SDS011;51008;51.504;11.548;2023-08-06T22:13:13;7.20;;;3.30;;
64598;SDS011;51008;51.504;11.548;2023-08-06T22:18:14;5.28;;;3.05;;
64598;SDS011;51008;51.504;11.548;2023-08-06T22:23:15;5.32;;;3.15;;
64598;SDS011;51008;51.504;11.548;2023-08-06T22:28:16;7.32;;;3.20;;
64598;SDS011;51008;51.504;11.548;2023-08-06T22:33:17;5.70;;;3.35;;
64598;SDS011;51008;51.504;11.548;2023-08-06T22:38:18;9.45;;;3.28;;
64598;SDS011;51008;51.504;11.548;2023-08-06T22:43:19;6.97;;;2.97;;
64598;SDS011;51008;51.504;11.548;2023-08-06T22:48:20;4.82;;;2.40;;
64598;SDS011;51008;51.504;11.548;2023-08-06T22:53:21;3.20;;;2.40;;
64598;SDS011;51008;51.504;11.548;2023-08-06T22:58:22;4.90;;;2.40;;
64598;SDS011;51008;51.504;11.548;2023-08-06T23:03:23;3.35;;;2.22;;
64598;SDS011;51008;51.504;11.548;2023-08-06T23:08:24;3.67;;;2.30;;
64598;SDS011;51008;51.504;11.548;2023-08-06T23:13:25;2.53;;;1.88;;
64598;SDS011;51008;51.504;11.548;2023-08-06T23:18:26;2.25;;;2.03;;
64598;SDS011;51008;51.504;11.548;2023-08-06T23:23:27;2.67;;;2.05;;
64598;SDS011;51008;51.504;11.548;2023-08-06T23:28:28;3.03;;;1.80;;
64598;SDS011;51008;51.504;11.548;2023-08-06T23:33:29;2.50;;;1.90;;
64598;SDS011;51008;51.504;11.548;2023-08-06T23:38:30;2.38;;;1.70;;
64598;SDS011;51008;51.504;11.548;2023-08-06T23:43:31;3.97;;;1.70;;
64598;SDS011;51008;51.504;11.548;2023-08-06T23:48:32;3.58;;;1.70;;
64598;SDS011;51008;51.504;11.548;2023-08-06T23:53:33;2.90;;;1.90;;
64598;SDS011;51008;51.504;11.548;2023-08-06T23:58:34;5.65;;;1.70;;
